sensor_id;sensor_type;location;lat;lon;timestamp;P1;durP1;ratioP1;P2;durP2;ratioP2
55090;SDS011;40985;53.180;5.800;2023-06-22T00:00:27;29.67;;;26.52;;
55090;SDS011;40985;53.180;5.800;2023-06-22T00:02:53;30.83;;;26.08;;
55090;SDS011;40985;53.180;5.800;2023-06-22T00:05:18;30.83;;;27.10;;
55090;SDS011;40985;53.180;5.800;2023-06-22T00:07:44;34.50;;;29.23;;
55090;SDS011;40985;53.180;5.800;2023-06-22T00:10:10;21.85;;;19.15;;
55090;SDS011;40985;53.180;5.800;2023-06-22T00:12:35;24.80;;;20.83;;
55090;SDS011;40985;53.180;5.800;2023-06-22T00:15:01;25.33;;;22.65;;
55090;SDS011;40985;53.180;5.800;2023-06-22T00:17:27;24.50;;;21.90;;
55090;SDS011;40985;53.180;5.800;2023-06-22T00:19:52;28.92;;;25.77;;
55090;SDS011;40985;53.180;5.800;2023-06-22T00:22:20;38.03;;;31.13;;
55090;SDS011;40985;53.180;5.800;2023-06-22T00:24:53;34.15;;;27.13;;
55090;SDS011;40985;53.180;5.800;2023-06-22T00:27:20;31.77;;;26.73;;
55090;SDS011;40985;53.180;5.800;2023-06-22T00:29:46;32.78;;;27.85;;
55090;SDS011;40985;53.180;5.800;2023-06-22T00:32:11;34.35;;;27.80;;
55090;SDS011;40985;53.180;5.800;2023-06-22T00:34:37;33.42;;;27.88;;
55090;SDS011;40985;53.180;5.800;2023-06-22T00:37:03;31.00;;;26.90;;
55090;SDS011;40985;53.180;5.800;2023-06-22T00:39:29;29.75;;;26.50;;
55090;SDS011;40985;53.180;5.800;2023-06-22T00:41:55;28.65;;;25.38;;
55090;SDS011;40985;53.180;5.800;2023-06-22T00:44:20;26.95;;;24.30;;
55090;SDS011;40985;53.180;5.800;2023-06-22T00:46:46;30.05;;;26.83;;
55090;SDS011;40985;53.180;5.800;2023-06-22T00:49:12;29.73;;;25.52;;
55090;SDS011;40985;53.180;5.800;2023-06-22T00:51:38;27.15;;;24.25;;
55090;SDS011;40985;53.180;5.800;2023-06-22T00:54:04;28.25;;;25.10;;
55090;SDS011;40985;53.180;5.800;2023-06-22T00:56:31;27.25;;;22.83;;
55090;SDS011;40985;53.180;5.800;2023-06-22T00:58:58;23.95;;;21.35;;
55090;SDS011;40985;53.180;5.800;2023-06-22T01:01:25;21.65;;;19.48;;
55090;SDS011;40985;53.180;5.800;2023-06-22T01:03:51;21.05;;;19.17;;
55090;SDS011;40985;53.180;5.800;2023-06-22T01:06:19;23.33;;;20.88;;
55090;SDS011;40985;53.180;5.800;2023-06-22T01:08:53;21.52;;;19.33;;
55090;SDS011;40985;53.180;5.800;2023-06-22T01:11:41;21.17;;;19.10;;
55090;SDS011;40985;53.180;5.800;2023-06-22T01:16:44;20.40;;;18.30;;
55090;SDS011;40985;53.180;5.800;2023-06-22T01:21:47;20.08;;;18.17;;
55090;SDS011;40985;53.180;5.800;2023-06-22T01:30:02;20.17;;;18.23;;
55090;SDS011;40985;53.180;5.800;2023-06-22T01:32:31;21.17;;;18.92;;
55090;SDS011;40985;53.180;5.800;2023-06-22T01:35:00;21.48;;;19.20;;
55090;SDS011;40985;53.180;5.800;2023-06-22T01:37:28;21.05;;;18.98;;
55090;SDS011;40985;53.180;5.800;2023-06-22T01:39:56;22.23;;;19.65;;
55090;SDS011;40985;53.180;5.800;2023-06-22T01:42:23;20.63;;;18.77;;
55090;SDS011;40985;53.180;5.800;2023-06-22T01:44:51;24.73;;;22.40;;
55090;SDS011;40985;53.180;5.800;2023-06-22T01:47:18;23.08;;;20.77;;
55090;SDS011;40985;53.180;5.800;2023-06-22T01:49:45;16.92;;;15.13;;
55090;SDS011;40985;53.180;5.800;2023-06-22T01:52:11;16.42;;;14.88;;
55090;SDS011;40985;53.180;5.800;2023-06-22T01:54:38;17.08;;;15.57;;
55090;SDS011;40985;53.180;5.800;2023-06-22T01:57:05;24.33;;;21.80;;
55090;SDS011;40985;53.180;5.800;2023-06-22T01:59:39;23.38;;;20.75;;
55090;SDS011;40985;53.180;5.800;2023-06-22T02:02:30;28.48;;;25.63;;
55090;SDS011;40985;53.180;5.800;2023-06-22T02:05:03;25.67;;;23.08;;
55090;SDS011;40985;53.180;5.800;2023-06-22T02:07:39;26.23;;;23.55;;
55090;SDS011;40985;53.180;5.800;2023-06-22T02:10:09;27.33;;;24.50;;
55090;SDS011;40985;53.180;5.800;2023-06-22T02:12:38;27.45;;;24.83;;
55090;SDS011;40985;53.180;5.800;2023-06-22T02:15:07;28.58;;;25.70;;
55090;SDS011;40985;53.180;5.800;2023-06-22T02:17:34;28.55;;;25.33;;
55090;SDS011;40985;53.180;5.800;2023-06-22T02:20:01;29.83;;;26.75;;
55090;SDS011;40985;53.180;5.800;2023-06-22T02:22:33;29.80;;;26.63;;
55090;SDS011;40985;53.180;5.800;2023-06-22T02:24:59;29.98;;;26.80;;
55090;SDS011;40985;53.180;5.800;2023-06-22T02:27:25;22.73;;;20.35;;
55090;SDS011;40985;53.180;5.800;2023-06-22T02:29:50;31.08;;;27.80;;
55090;SDS011;40985;53.180;5.800;2023-06-22T02:32:16;26.92;;;24.10;;
55090;SDS011;40985;53.180;5.800;2023-06-22T02:34:43;36.15;;;29.33;;
55090;SDS011;40985;53.180;5.800;2023-06-22T02:37:12;32.95;;;29.55;;
55090;SDS011;40985;53.180;5.800;2023-06-22T02:43:20;30.40;;;27.05;;
55090;SDS011;40985;53.180;5.800;2023-06-22T02:45:46;29.73;;;26.63;;
55090;SDS011;40985;53.180;5.800;2023-06-22T02:48:11;32.30;;;28.80;;
55090;SDS011;40985;53.180;5.800;2023-06-22T02:50:37;33.03;;;28.30;;
55090;SDS011;40985;53.180;5.800;2023-06-22T02:53:03;33.75;;;29.20;;
55090;SDS011;40985;53.180;5.800;2023-06-22T02:55:28;29.48;;;26.50;;
55090;SDS011;40985;53.180;5.800;2023-06-22T02:57:54;32.03;;;28.27;;
55090;SDS011;40985;53.180;5.800;2023-06-22T03:00:20;35.83;;;31.33;;
55090;SDS011;40985;53.180;5.800;2023-06-22T03:02:47;34.53;;;30.98;;
55090;SDS011;40985;53.180;5.800;2023-06-22T03:05:13;35.35;;;31.55;;
55090;SDS011;40985;53.180;5.800;2023-06-22T03:07:40;37.33;;;33.38;;
55090;SDS011;40985;53.180;5.800;2023-06-22T03:10:07;37.95;;;33.85;;
55090;SDS011;40985;53.180;5.800;2023-06-22T03:12:37;35.53;;;31.58;;
55090;SDS011;40985;53.180;5.800;2023-06-22T03:15:04;35.13;;;31.38;;
55090;SDS011;40985;53.180;5.800;2023-06-22T03:17:35;37.92;;;33.65;;
55090;SDS011;40985;53.180;5.800;2023-06-22T03:20:01;36.65;;;32.78;;
55090;SDS011;40985;53.180;5.800;2023-06-22T03:22:37;37.08;;;33.13;;
55090;SDS011;40985;53.180;5.800;2023-06-22T03:25:04;39.92;;;35.85;;
55090;SDS011;40985;53.180;5.800;2023-06-22T03:27:35;39.40;;;35.28;;
55090;SDS011;40985;53.180;5.800;2023-06-22T03:30:01;39.10;;;34.85;;
55090;SDS011;40985;53.180;5.800;2023-06-22T03:32:27;46.15;;;37.03;;
55090;SDS011;40985;53.180;5.800;2023-06-22T03:34:53;37.90;;;33.92;;
55090;SDS011;40985;53.180;5.800;2023-06-22T03:37:19;36.47;;;32.75;;
55090;SDS011;40985;53.180;5.800;2023-06-22T03:39:45;39.92;;;35.38;;
55090;SDS011;40985;53.180;5.800;2023-06-22T03:42:10;40.55;;;35.38;;
55090;SDS011;40985;53.180;5.800;2023-06-22T03:44:36;37.38;;;33.35;;
55090;SDS011;40985;53.180;5.800;2023-06-22T03:47:05;35.08;;;31.58;;
55090;SDS011;40985;53.180;5.800;2023-06-22T03:49:32;39.53;;;35.33;;
55090;SDS011;40985;53.180;5.800;2023-06-22T03:51:59;37.67;;;33.88;;
55090;SDS011;40985;53.180;5.800;2023-06-22T03:54:26;34.67;;;31.27;;
55090;SDS011;40985;53.180;5.800;2023-06-22T03:56:53;34.80;;;30.95;;
55090;SDS011;40985;53.180;5.800;2023-06-22T03:59:18;33.65;;;30.38;;
55090;SDS011;40985;53.180;5.800;2023-06-22T04:01:44;35.00;;;31.40;;
55090;SDS011;40985;53.180;5.800;2023-06-22T04:04:10;33.33;;;30.25;;
55090;SDS011;40985;53.180;5.800;2023-06-22T04:06:36;35.95;;;32.35;;
55090;SDS011;40985;53.180;5.800;2023-06-22T04:09:01;36.35;;;32.67;;
55090;SDS011;40985;53.180;5.800;2023-06-22T04:11:27;35.30;;;31.73;;
55090;SDS011;40985;53.180;5.800;2023-06-22T04:13:53;33.45;;;30.27;;
55090;SDS011;40985;53.180;5.800;2023-06-22T04:16:19;30.83;;;27.92;;
55090;SDS011;40985;53.180;5.800;2023-06-22T04:18:44;30.20;;;27.33;;
55090;SDS011;40985;53.180;5.800;2023-06-22T04:21:10;29.55;;;26.75;;
55090;SDS011;40985;53.180;5.800;2023-06-22T04:23:36;30.10;;;27.27;;
55090;SDS011;40985;53.180;5.800;2023-06-22T04:26:01;30.40;;;27.50;;
55090;SDS011;40985;53.180;5.800;2023-06-22T04:28:27;31.63;;;28.80;;
55090;SDS011;40985;53.180;5.800;2023-06-22T04:30:53;31.15;;;27.98;;
55090;SDS011;40985;53.180;5.800;2023-06-22T04:33:23;33.42;;;30.30;;
55090;SDS011;40985;53.180;5.800;2023-06-22T04:35:48;32.10;;;29.15;;
55090;SDS011;40985;53.180;5.800;2023-06-22T04:38:15;32.88;;;29.58;;
55090;SDS011;40985;53.180;5.800;2023-06-22T04:40:41;31.08;;;28.17;;
55090;SDS011;40985;53.180;5.800;2023-06-22T04:43:07;29.98;;;27.38;;
55090;SDS011;40985;53.180;5.800;2023-06-22T04:45:35;31.92;;;29.02;;
55090;SDS011;40985;53.180;5.800;2023-06-22T04:48:03;32.25;;;29.05;;
55090;SDS011;40985;53.180;5.800;2023-06-22T04:50:29;32.70;;;29.60;;
55090;SDS011;40985;53.180;5.800;2023-06-22T04:52:55;31.75;;;28.52;;
55090;SDS011;40985;53.180;5.800;2023-06-22T04:55:21;32.53;;;29.20;;
55090;SDS011;40985;53.180;5.800;2023-06-22T04:57:47;32.85;;;29.70;;
55090;SDS011;40985;53.180;5.800;2023-06-22T05:00:16;34.28;;;30.88;;
55090;SDS011;40985;53.180;5.800;2023-06-22T05:02:44;34.63;;;31.13;;
55090;SDS011;40985;53.180;5.800;2023-06-22T05:05:10;34.22;;;30.83;;
55090;SDS011;40985;53.180;5.800;2023-06-22T05:07:45;35.75;;;31.92;;
55090;SDS011;40985;53.180;5.800;2023-06-22T05:10:16;36.70;;;32.78;;
55090;SDS011;40985;53.180;5.800;2023-06-22T05:12:41;33.15;;;29.77;;
55090;SDS011;40985;53.180;5.800;2023-06-22T05:15:08;33.78;;;30.25;;
55090;SDS011;40985;53.180;5.800;2023-06-22T05:17:35;34.15;;;30.45;;
55090;SDS011;40985;53.180;5.800;2023-06-22T05:20:01;37.17;;;32.17;;
55090;SDS011;40985;53.180;5.800;2023-06-22T05:22:31;35.75;;;31.85;;
55090;SDS011;40985;53.180;5.800;2023-06-22T05:24:57;36.00;;;32.15;;
55090;SDS011;40985;53.180;5.800;2023-06-22T05:27:22;38.17;;;30.73;;
55090;SDS011;40985;53.180;5.800;2023-06-22T05:29:48;35.50;;;29.95;;
55090;SDS011;40985;53.180;5.800;2023-06-22T05:32:13;33.22;;;29.63;;
55090;SDS011;40985;53.180;5.800;2023-06-22T05:34:39;31.65;;;28.25;;
55090;SDS011;40985;53.180;5.800;2023-06-22T05:37:05;31.77;;;28.35;;
55090;SDS011;40985;53.180;5.800;2023-06-22T05:39:31;33.72;;;28.77;;
55090;SDS011;40985;53.180;5.800;2023-06-22T05:41:56;33.83;;;29.73;;
55090;SDS011;40985;53.180;5.800;2023-06-22T05:44:22;35.20;;;31.35;;
55090;SDS011;40985;53.180;5.800;2023-06-22T05:46:48;33.28;;;27.80;;
55090;SDS011;40985;53.180;5.800;2023-06-22T05:49:15;31.25;;;28.00;;
55090;SDS011;40985;53.180;5.800;2023-06-22T05:51:41;29.48;;;26.48;;
55090;SDS011;40985;53.180;5.800;2023-06-22T05:54:07;31.45;;;28.13;;
55090;SDS011;40985;53.180;5.800;2023-06-22T05:56:33;33.10;;;29.33;;
55090;SDS011;40985;53.180;5.800;2023-06-22T05:58:59;33.78;;;30.20;;
55090;SDS011;40985;53.180;5.800;2023-06-22T06:01:25;32.33;;;29.13;;
55090;SDS011;40985;53.180;5.800;2023-06-22T06:03:51;32.50;;;29.00;;
55090;SDS011;40985;53.180;5.800;2023-06-22T06:06:18;33.15;;;29.65;;
55090;SDS011;40985;53.180;5.800;2023-06-22T06:08:46;30.08;;;26.90;;
55090;SDS011;40985;53.180;5.800;2023-06-22T06:11:11;30.02;;;26.67;;
55090;SDS011;40985;53.180;5.800;2023-06-22T06:13:37;30.08;;;26.90;;
55090;SDS011;40985;53.180;5.800;2023-06-22T06:16:03;27.83;;;24.88;;
55090;SDS011;40985;53.180;5.800;2023-06-22T06:18:29;28.83;;;24.42;;
55090;SDS011;40985;53.180;5.800;2023-06-22T06:20:54;29.70;;;25.45;;
55090;SDS011;40985;53.180;5.800;2023-06-22T06:23:20;25.17;;;22.33;;
55090;SDS011;40985;53.180;5.800;2023-06-22T06:25:46;25.60;;;22.83;;
55090;SDS011;40985;53.180;5.800;2023-06-22T06:28:11;26.63;;;23.23;;
55090;SDS011;40985;53.180;5.800;2023-06-22T06:30:37;25.65;;;22.95;;
55090;SDS011;40985;53.180;5.800;2023-06-22T06:33:03;24.60;;;22.08;;
55090;SDS011;40985;53.180;5.800;2023-06-22T06:35:34;21.55;;;19.40;;
55090;SDS011;40985;53.180;5.800;2023-06-22T06:37:59;22.80;;;20.33;;
55090;SDS011;40985;53.180;5.800;2023-06-22T06:40:25;22.50;;;20.05;;
55090;SDS011;40985;53.180;5.800;2023-06-22T06:42:51;21.52;;;19.33;;
55090;SDS011;40985;53.180;5.800;2023-06-22T06:45:18;23.63;;;21.23;;
55090;SDS011;40985;53.180;5.800;2023-06-22T06:47:44;24.10;;;21.63;;
55090;SDS011;40985;53.180;5.800;2023-06-22T06:50:11;25.02;;;22.35;;
55090;SDS011;40985;53.180;5.800;2023-06-22T06:52:37;27.00;;;24.25;;
55090;SDS011;40985;53.180;5.800;2023-06-22T06:55:03;25.90;;;23.23;;
55090;SDS011;40985;53.180;5.800;2023-06-22T06:57:32;25.85;;;23.17;;
55090;SDS011;40985;53.180;5.800;2023-06-22T06:59:58;25.23;;;22.63;;
55090;SDS011;40985;53.180;5.800;2023-06-22T07:02:25;26.70;;;24.02;;
55090;SDS011;40985;53.180;5.800;2023-06-22T07:04:52;27.17;;;24.58;;
55090;SDS011;40985;53.180;5.800;2023-06-22T07:07:20;30.27;;;25.23;;
55090;SDS011;40985;53.180;5.800;2023-06-22T07:09:46;26.30;;;23.55;;
55090;SDS011;40985;53.180;5.800;2023-06-22T07:12:12;25.63;;;23.00;;
55090;SDS011;40985;53.180;5.800;2023-06-22T07:14:37;24.30;;;21.88;;
55090;SDS011;40985;53.180;5.800;2023-06-22T07:17:03;23.83;;;21.58;;
55090;SDS011;40985;53.180;5.800;2023-06-22T07:19:29;24.48;;;22.08;;
55090;SDS011;40985;53.180;5.800;2023-06-22T07:21:56;22.52;;;20.08;;
55090;SDS011;40985;53.180;5.800;2023-06-22T07:24:22;24.17;;;21.88;;
55090;SDS011;40985;53.180;5.800;2023-06-22T07:26:49;22.27;;;20.17;;
55090;SDS011;40985;53.180;5.800;2023-06-22T07:29:19;23.85;;;21.55;;
55090;SDS011;40985;53.180;5.800;2023-06-22T07:31:46;24.90;;;22.38;;
55090;SDS011;40985;53.180;5.800;2023-06-22T07:34:12;21.58;;;19.35;;
55090;SDS011;40985;53.180;5.800;2023-06-22T07:36:38;21.60;;;19.40;;
55090;SDS011;40985;53.180;5.800;2023-06-22T07:39:04;20.80;;;18.80;;
55090;SDS011;40985;53.180;5.800;2023-06-22T07:41:30;20.23;;;18.33;;
55090;SDS011;40985;53.180;5.800;2023-06-22T07:43:56;21.45;;;17.85;;
55090;SDS011;40985;53.180;5.800;2023-06-22T07:46:22;20.88;;;18.65;;
55090;SDS011;40985;53.180;5.800;2023-06-22T07:48:48;17.60;;;15.90;;
55090;SDS011;40985;53.180;5.800;2023-06-22T07:51:14;18.27;;;16.38;;
55090;SDS011;40985;53.180;5.800;2023-06-22T07:53:43;19.00;;;16.88;;
55090;SDS011;40985;53.180;5.800;2023-06-22T07:56:12;16.10;;;14.35;;
55090;SDS011;40985;53.180;5.800;2023-06-22T07:58:39;14.60;;;13.05;;
55090;SDS011;40985;53.180;5.800;2023-06-22T08:01:05;16.98;;;15.38;;
55090;SDS011;40985;53.180;5.800;2023-06-22T08:03:31;18.13;;;16.33;;
55090;SDS011;40985;53.180;5.800;2023-06-22T08:05:57;17.13;;;15.32;;
55090;SDS011;40985;53.180;5.800;2023-06-22T08:08:23;15.23;;;13.63;;
55090;SDS011;40985;53.180;5.800;2023-06-22T08:10:49;16.17;;;13.32;;
55090;SDS011;40985;53.180;5.800;2023-06-22T08:13:15;16.73;;;14.75;;
55090;SDS011;40985;53.180;5.800;2023-06-22T08:15:40;16.85;;;15.05;;
55090;SDS011;40985;53.180;5.800;2023-06-22T08:18:06;16.48;;;13.52;;
55090;SDS011;40985;53.180;5.800;2023-06-22T08:20:32;10.63;;;9.57;;
55090;SDS011;40985;53.180;5.800;2023-06-22T08:22:58;11.80;;;10.32;;
55090;SDS011;40985;53.180;5.800;2023-06-22T08:25:30;10.70;;;9.45;;
55090;SDS011;40985;53.180;5.800;2023-06-22T08:27:56;13.30;;;11.65;;
55090;SDS011;40985;53.180;5.800;2023-06-22T08:30:21;14.35;;;11.32;;
55090;SDS011;40985;53.180;5.800;2023-06-22T08:32:47;11.82;;;10.55;;
55090;SDS011;40985;53.180;5.800;2023-06-22T08:35:13;10.27;;;9.32;;
55090;SDS011;40985;53.180;5.800;2023-06-22T08:37:39;10.73;;;9.60;;
55090;SDS011;40985;53.180;5.800;2023-06-22T08:40:07;11.90;;;10.80;;
55090;SDS011;40985;53.180;5.800;2023-06-22T08:42:35;11.90;;;10.55;;
55090;SDS011;40985;53.180;5.800;2023-06-22T08:45:01;12.88;;;11.57;;
55090;SDS011;40985;53.180;5.800;2023-06-22T08:47:27;11.60;;;9.88;;
55090;SDS011;40985;53.180;5.800;2023-06-22T08:49:53;10.55;;;9.50;;
55090;SDS011;40985;53.180;5.800;2023-06-22T08:52:19;10.10;;;9.20;;
55090;SDS011;40985;53.180;5.800;2023-06-22T08:54:45;10.15;;;9.13;;
55090;SDS011;40985;53.180;5.800;2023-06-22T08:57:12;11.57;;;10.38;;
55090;SDS011;40985;53.180;5.800;2023-06-22T08:59:37;9.30;;;8.50;;
55090;SDS011;40985;53.180;5.800;2023-06-22T09:02:03;10.60;;;9.60;;
55090;SDS011;40985;53.180;5.800;2023-06-22T09:04:29;7.28;;;6.50;;
55090;SDS011;40985;53.180;5.800;2023-06-22T09:06:59;10.52;;;9.50;;
55090;SDS011;40985;53.180;5.800;2023-06-22T09:09:26;8.73;;;7.97;;
55090;SDS011;40985;53.180;5.800;2023-06-22T09:11:52;8.30;;;7.10;;
55090;SDS011;40985;53.180;5.800;2023-06-22T09:14:17;10.20;;;9.10;;
55090;SDS011;40985;53.180;5.800;2023-06-22T09:16:43;9.30;;;8.35;;
55090;SDS011;40985;53.180;5.800;2023-06-22T09:19:09;10.40;;;8.10;;
55090;SDS011;40985;53.180;5.800;2023-06-22T09:21:35;9.95;;;8.80;;
55090;SDS011;40985;53.180;5.800;2023-06-22T09:24:01;9.65;;;8.85;;
55090;SDS011;40985;53.180;5.800;2023-06-22T09:26:27;10.82;;;9.15;;
55090;SDS011;40985;53.180;5.800;2023-06-22T09:28:53;9.25;;;8.35;;
55090;SDS011;40985;53.180;5.800;2023-06-22T09:31:19;9.77;;;8.38;;
55090;SDS011;40985;53.180;5.800;2023-06-22T09:33:52;8.02;;;7.28;;
55090;SDS011;40985;53.180;5.800;2023-06-22T09:36:18;9.15;;;7.40;;
55090;SDS011;40985;53.180;5.800;2023-06-22T09:38:44;9.05;;;8.13;;
55090;SDS011;40985;53.180;5.800;2023-06-22T09:41:09;8.80;;;7.90;;
55090;SDS011;40985;53.180;5.800;2023-06-22T09:43:35;9.55;;;8.65;;
55090;SDS011;40985;53.180;5.800;2023-06-22T09:46:01;10.63;;;9.63;;
55090;SDS011;40985;53.180;5.800;2023-06-22T09:48:27;10.82;;;9.18;;
55090;SDS011;40985;53.180;5.800;2023-06-22T09:50:54;9.32;;;7.85;;
55090;SDS011;40985;53.180;5.800;2023-06-22T09:53:20;6.80;;;6.30;;
55090;SDS011;40985;53.180;5.800;2023-06-22T09:55:46;4.95;;;4.55;;
55090;SDS011;40985;53.180;5.800;2023-06-22T09:58:11;6.05;;;5.45;;
55090;SDS011;40985;53.180;5.800;2023-06-22T10:00:37;8.00;;;7.03;;
55090;SDS011;40985;53.180;5.800;2023-06-22T10:03:03;6.93;;;6.25;;
55090;SDS011;40985;53.180;5.800;2023-06-22T10:05:28;10.25;;;7.90;;
55090;SDS011;40985;53.180;5.800;2023-06-22T10:07:54;9.38;;;8.45;;
55090;SDS011;40985;53.180;5.800;2023-06-22T10:10:20;8.68;;;7.85;;
55090;SDS011;40985;53.180;5.800;2023-06-22T10:12:46;7.88;;;7.18;;
55090;SDS011;40985;53.180;5.800;2023-06-22T10:15:13;9.65;;;7.15;;
55090;SDS011;40985;53.180;5.800;2023-06-22T10:17:40;8.30;;;7.03;;
55090;SDS011;40985;53.180;5.800;2023-06-22T10:20:06;8.95;;;6.55;;
55090;SDS011;40985;53.180;5.800;2023-06-22T10:22:36;9.50;;;8.68;;
55090;SDS011;40985;53.180;5.800;2023-06-22T10:25:06;8.32;;;7.55;;
55090;SDS011;40985;53.180;5.800;2023-06-22T10:27:32;8.82;;;7.93;;
55090;SDS011;40985;53.180;5.800;2023-06-22T10:29:58;9.05;;;7.15;;
55090;SDS011;40985;53.180;5.800;2023-06-22T10:32:24;6.95;;;6.25;;
55090;SDS011;40985;53.180;5.800;2023-06-22T10:34:49;6.32;;;5.82;;
55090;SDS011;40985;53.180;5.800;2023-06-22T10:37:15;5.93;;;5.15;;
55090;SDS011;40985;53.180;5.800;2023-06-22T10:39:41;6.95;;;6.20;;
55090;SDS011;40985;53.180;5.800;2023-06-22T10:42:06;6.93;;;6.22;;
55090;SDS011;40985;53.180;5.800;2023-06-22T10:44:32;7.05;;;6.32;;
55090;SDS011;40985;53.180;5.800;2023-06-22T10:46:58;7.78;;;6.55;;
55090;SDS011;40985;53.180;5.800;2023-06-22T10:49:24;7.25;;;6.55;;
55090;SDS011;40985;53.180;5.800;2023-06-22T10:51:49;6.82;;;6.28;;
55090;SDS011;40985;53.180;5.800;2023-06-22T10:54:15;5.82;;;5.32;;
55090;SDS011;40985;53.180;5.800;2023-06-22T10:56:43;7.05;;;6.40;;
55090;SDS011;40985;53.180;5.800;2023-06-22T10:59:09;6.07;;;5.57;;
55090;SDS011;40985;53.180;5.800;2023-06-22T11:01:34;5.05;;;4.55;;
55090;SDS011;40985;53.180;5.800;2023-06-22T11:04:02;5.72;;;5.05;;
55090;SDS011;40985;53.180;5.800;2023-06-22T11:06:28;4.95;;;4.50;;
55090;SDS011;40985;53.180;5.800;2023-06-22T11:08:53;5.47;;;5.07;;
55090;SDS011;40985;53.180;5.800;2023-06-22T11:11:19;5.72;;;5.22;;
55090;SDS011;40985;53.180;5.800;2023-06-22T11:13:45;5.85;;;4.78;;
55090;SDS011;40985;53.180;5.800;2023-06-22T11:16:10;4.90;;;4.50;;
55090;SDS011;40985;53.180;5.800;2023-06-22T11:18:36;5.18;;;4.78;;
55090;SDS011;40985;53.180;5.800;2023-06-22T11:21:03;5.05;;;4.57;;
55090;SDS011;40985;53.180;5.800;2023-06-22T11:23:28;5.13;;;4.63;;
55090;SDS011;40985;53.180;5.800;2023-06-22T11:25:55;6.57;;;4.82;;
55090;SDS011;40985;53.180;5.800;2023-06-22T11:28:20;6.43;;;4.70;;
55090;SDS011;40985;53.180;5.800;2023-06-22T11:30:46;4.70;;;4.40;;
55090;SDS011;40985;53.180;5.800;2023-06-22T11:33:12;4.63;;;3.47;;
55090;SDS011;40985;53.180;5.800;2023-06-22T11:35:37;5.97;;;4.45;;
55090;SDS011;40985;53.180;5.800;2023-06-22T11:38:03;7.07;;;4.20;;
55090;SDS011;40985;53.180;5.800;2023-06-22T11:40:30;5.97;;;3.55;;
55090;SDS011;40985;53.180;5.800;2023-06-22T11:42:55;5.88;;;4.32;;
55090;SDS011;40985;53.180;5.800;2023-06-22T11:45:21;4.22;;;3.83;;
55090;SDS011;40985;53.180;5.800;2023-06-22T11:47:47;3.70;;;3.40;;
55090;SDS011;40985;53.180;5.800;2023-06-22T11:50:13;3.83;;;3.53;;
55090;SDS011;40985;53.180;5.800;2023-06-22T11:52:39;3.70;;;3.47;;
55090;SDS011;40985;53.180;5.800;2023-06-22T11:55:05;3.30;;;2.95;;
55090;SDS011;40985;53.180;5.800;2023-06-22T11:57:38;3.72;;;3.33;;
55090;SDS011;40985;53.180;5.800;2023-06-22T12:00:16;4.20;;;3.80;;
55090;SDS011;40985;53.180;5.800;2023-06-22T12:02:43;4.40;;;3.53;;
55090;SDS011;40985;53.180;5.800;2023-06-22T12:05:10;2.90;;;2.40;;
55090;SDS011;40985;53.180;5.800;2023-06-22T12:07:36;4.80;;;4.00;;
55090;SDS011;40985;53.180;5.800;2023-06-22T12:10:02;3.90;;;3.60;;
55090;SDS011;40985;53.180;5.800;2023-06-22T12:12:28;3.53;;;3.22;;
55090;SDS011;40985;53.180;5.800;2023-06-22T12:14:54;4.75;;;3.08;;
55090;SDS011;40985;53.180;5.800;2023-06-22T12:17:20;5.53;;;4.38;;
55090;SDS011;40985;53.180;5.800;2023-06-22T12:19:46;3.47;;;2.83;;
55090;SDS011;40985;53.180;5.800;2023-06-22T12:22:11;3.40;;;3.10;;
55090;SDS011;40985;53.180;5.800;2023-06-22T12:24:37;5.70;;;3.22;;
55090;SDS011;40985;53.180;5.800;2023-06-22T12:27:03;2.45;;;2.30;;
55090;SDS011;40985;53.180;5.800;2023-06-22T12:29:29;4.18;;;2.45;;
55090;SDS011;40985;53.180;5.800;2023-06-22T12:31:55;2.95;;;1.90;;
55090;SDS011;40985;53.180;5.800;2023-06-22T12:34:20;2.28;;;2.08;;
55090;SDS011;40985;53.180;5.800;2023-06-22T12:36:46;2.55;;;1.45;;
55090;SDS011;40985;53.180;5.800;2023-06-22T12:39:15;3.72;;;1.40;;
55090;SDS011;40985;53.180;5.800;2023-06-22T12:41:40;2.75;;;1.27;;
55090;SDS011;40985;53.180;5.800;2023-06-22T12:44:06;1.45;;;1.35;;
55090;SDS011;40985;53.180;5.800;2023-06-22T12:46:31;2.85;;;1.55;;
55090;SDS011;40985;53.180;5.800;2023-06-22T12:49:02;1.65;;;0.70;;
55090;SDS011;40985;53.180;5.800;2023-06-22T12:51:29;2.25;;;0.77;;
55090;SDS011;40985;53.180;5.800;2023-06-22T12:53:55;2.28;;;1.10;;
55090;SDS011;40985;53.180;5.800;2023-06-22T12:56:21;2.58;;;1.42;;
55090;SDS011;40985;53.180;5.800;2023-06-22T12:58:47;1.00;;;0.40;;
55090;SDS011;40985;53.180;5.800;2023-06-22T13:01:13;2.38;;;0.70;;
55090;SDS011;40985;53.180;5.800;2023-06-22T13:03:39;1.00;;;0.70;;
55090;SDS011;40985;53.180;5.800;2023-06-22T13:06:04;1.13;;;0.50;;
55090;SDS011;40985;53.180;5.800;2023-06-22T13:08:30;1.42;;;0.40;;
55090;SDS011;40985;53.180;5.800;2023-06-22T13:10:56;1.17;;;0.50;;
55090;SDS011;40985;53.180;5.800;2023-06-22T13:13:23;1.25;;;0.47;;
55090;SDS011;40985;53.180;5.800;2023-06-22T13:15:50;1.10;;;0.52;;
55090;SDS011;40985;53.180;5.800;2023-06-22T13:18:15;1.55;;;0.40;;
55090;SDS011;40985;53.180;5.800;2023-06-22T13:20:41;1.00;;;0.40;;
55090;SDS011;40985;53.180;5.800;2023-06-22T13:23:07;0.55;;;0.35;;
55090;SDS011;40985;53.180;5.800;2023-06-22T13:25:32;0.70;;;0.50;;
55090;SDS011;40985;53.180;5.800;2023-06-22T13:27:58;1.65;;;0.50;;
55090;SDS011;40985;53.180;5.800;2023-06-22T13:30:24;0.80;;;0.30;;
55090;SDS011;40985;53.180;5.800;2023-06-22T13:32:49;2.25;;;0.40;;
55090;SDS011;40985;53.180;5.800;2023-06-22T13:35:15;1.27;;;0.30;;
55090;SDS011;40985;53.180;5.800;2023-06-22T13:37:41;3.03;;;0.30;;
55090;SDS011;40985;53.180;5.800;2023-06-22T13:40:07;0.70;;;0.30;;
55090;SDS011;40985;53.180;5.800;2023-06-22T13:42:33;2.00;;;0.25;;
55090;SDS011;40985;53.180;5.800;2023-06-22T13:44:59;1.75;;;0.20;;
55090;SDS011;40985;53.180;5.800;2023-06-22T13:47:25;1.00;;;0.28;;
55090;SDS011;40985;53.180;5.800;2023-06-22T13:49:50;0.77;;;0.20;;
55090;SDS011;40985;53.180;5.800;2023-06-22T13:52:16;0.45;;;0.20;;
55090;SDS011;40985;53.180;5.800;2023-06-22T13:54:41;0.77;;;0.20;;
55090;SDS011;40985;53.180;5.800;2023-06-22T13:57:07;0.93;;;0.43;;
55090;SDS011;40985;53.180;5.800;2023-06-22T13:59:33;0.90;;;0.20;;
55090;SDS011;40985;53.180;5.800;2023-06-22T14:01:58;1.38;;;0.20;;
55090;SDS011;40985;53.180;5.800;2023-06-22T14:04:24;0.50;;;0.20;;
55090;SDS011;40985;53.180;5.800;2023-06-22T14:06:50;1.50;;;0.22;;
55090;SDS011;40985;53.180;5.800;2023-06-22T14:09:15;1.77;;;0.20;;
55090;SDS011;40985;53.180;5.800;2023-06-22T14:11:41;1.38;;;0.30;;
55090;SDS011;40985;53.180;5.800;2023-06-22T14:14:07;1.45;;;0.30;;
55090;SDS011;40985;53.180;5.800;2023-06-22T14:16:32;1.55;;;0.30;;
55090;SDS011;40985;53.180;5.800;2023-06-22T14:18:58;1.17;;;0.38;;
55090;SDS011;40985;53.180;5.800;2023-06-22T14:21:24;1.63;;;0.20;;
55090;SDS011;40985;53.180;5.800;2023-06-22T14:23:51;0.60;;;0.20;;
55090;SDS011;40985;53.180;5.800;2023-06-22T14:26:16;0.60;;;0.20;;
55090;SDS011;40985;53.180;5.800;2023-06-22T14:28:45;0.30;;;0.20;;
55090;SDS011;40985;53.180;5.800;2023-06-22T14:31:14;2.08;;;0.20;;
55090;SDS011;40985;53.180;5.800;2023-06-22T14:33:40;0.70;;;0.30;;
55090;SDS011;40985;53.180;5.800;2023-06-22T14:36:05;1.30;;;0.32;;
55090;SDS011;40985;53.180;5.800;2023-06-22T14:38:31;1.70;;;0.30;;
55090;SDS011;40985;53.180;5.800;2023-06-22T14:40:57;2.28;;;0.50;;